Welcome to the New NWS' Forecast!
Most changes are behind the scenes, but click here for differences you might notice.

Terminal Aerodrome Forecast (TAF)

Issued by National Weather Service (NWS)

                            
132 
FTUS42 KKEY 142330
TAFEYW
TAF
KEYW 142330Z 1500/1524 10009KT P6SM SCT025 SCT250
     FM150200 09009KT P6SM FEW025
     FM151600 12012KT P6SM VCTS SCT025CB SCT110 BKN150
     FM152100 12012KT P6SM VCSH SCT025 BKN150=